sensor_id;sensor_type;location;lat;lon;timestamp;pressure;altitude;pressure_sealevel;temperature;humidity
15914;BME280;8055;51.930;8.840;2023-05-21T00:02:13;75961.25;;;-145.72;100.00
15914;BME280;8055;51.930;8.840;2023-05-21T00:04:40;75948.84;;;-145.72;100.00
15914;BME280;8055;51.930;8.840;2023-05-21T00:07:06;75948.84;;;-145.72;100.00
15914;BME280;8055;51.930;8.840;2023-05-21T00:09:33;75948.84;;;-145.72;100.00
15914;BME280;8055;51.930;8.840;2023-05-21T00:11:59;75942.63;;;-145.72;100.00
15914;BME280;8055;51.930;8.840;2023-05-21T00:14:24;75940.56;;;-145.72;100.00
15914;BME280;8055;51.930;8.840;2023-05-21T00:16:49;75940.56;;;-145.72;100.00
15914;BME280;8055;51.930;8.840;2023-05-21T00:19:15;75938.50;;;-145.72;100.00
15914;BME280;8055;51.930;8.840;2023-05-21T00:21:40;75942.63;;;-145.72;100.00
15914;BME280;8055;51.930;8.840;2023-05-21T00:24:06;75946.78;;;-145.72;100.00
15914;BME280;8055;51.930;8.840;2023-05-21T00:26:31;75940.56;;;-145.72;100.00
15914;BME280;8055;51.930;8.840;2023-05-21T00:28:57;75940.56;;;-145.72;100.00
15914;BME280;8055;51.930;8.840;2023-05-21T00:31:22;75936.44;;;-145.72;100.00
15914;BME280;8055;51.930;8.840;2023-05-21T00:33:48;75942.63;;;-145.72;100.00
15914;BME280;8055;51.930;8.840;2023-05-21T00:36:13;75946.78;;;-145.72;100.00
15914;BME280;8055;51.930;8.840;2023-05-21T00:38:40;75944.72;;;-145.72;100.00
15914;BME280;8055;51.930;8.840;2023-05-21T00:41:08;75936.44;;;-145.72;100.00
15914;BME280;8055;51.930;8.840;2023-05-21T00:43:34;75940.56;;;-145.72;100.00
15914;BME280;8055;51.930;8.840;2023-05-21T00:46:00;75932.28;;;-145.72;100.00
15914;BME280;8055;51.930;8.840;2023-05-21T00:48:25;75928.16;;;-145.72;100.00
15914;BME280;8055;51.930;8.840;2023-05-21T00:50:51;75932.28;;;-145.72;100.00
15914;BME280;8055;51.930;8.840;2023-05-21T00:53:17;75921.94;;;-145.72;100.00
15914;BME280;8055;51.930;8.840;2023-05-21T00:55:44;75919.88;;;-145.72;100.00
15914;BME280;8055;51.930;8.840;2023-05-21T00:58:10;75926.09;;;-145.72;100.00
15914;BME280;8055;51.930;8.840;2023-05-21T01:00:36;75924.03;;;-145.72;100.00
15914;BME280;8055;51.930;8.840;2023-05-21T01:03:07;75915.75;;;-145.72;100.00
15914;BME280;8055;51.930;8.840;2023-05-21T01:05:33;75913.66;;;-145.72;100.00
15914;BME280;8055;51.930;8.840;2023-05-21T01:07:58;75913.66;;;-145.72;100.00
15914;BME280;8055;51.930;8.840;2023-05-21T01:10:25;75915.75;;;-145.72;100.00
15914;BME280;8055;51.930;8.840;2023-05-21T01:12:51;75921.94;;;-145.72;100.00
15914;BME280;8055;51.930;8.840;2023-05-21T01:15:19;75924.03;;;-145.72;100.00
15914;BME280;8055;51.930;8.840;2023-05-21T01:17:44;75919.88;;;-145.72;100.00
15914;BME280;8055;51.930;8.840;2023-05-21T01:20:10;75926.09;;;-145.72;100.00
15914;BME280;8055;51.930;8.840;2023-05-21T01:22:55;75919.88;;;-145.72;100.00
15914;BME280;8055;51.930;8.840;2023-05-21T01:25:21;75926.09;;;-145.72;100.00
15914;BME280;8055;51.930;8.840;2023-05-21T01:27:48;75915.75;;;-145.72;100.00
15914;BME280;8055;51.930;8.840;2023-05-21T01:30:18;75921.94;;;-145.72;100.00
15914;BME280;8055;51.930;8.840;2023-05-21T01:32:49;75928.16;;;-145.72;100.00
15914;BME280;8055;51.930;8.840;2023-05-21T01:35:25;75930.22;;;-145.72;100.00
15914;BME280;8055;51.930;8.840;2023-05-21T01:37:56;75932.28;;;-145.72;100.00
15914;BME280;8055;51.930;8.840;2023-05-21T01:40:44;75932.28;;;-145.72;100.00
15914;BME280;8055;51.930;8.840;2023-05-21T01:43:11;75946.78;;;-145.72;100.00
15914;BME280;8055;51.930;8.840;2023-05-21T01:45:39;75944.72;;;-145.72;100.00
15914;BME280;8055;51.930;8.840;2023-05-21T01:48:07;75944.72;;;-145.72;100.00
15914;BME280;8055;51.930;8.840;2023-05-21T01:50:34;75946.78;;;-145.72;100.00
15914;BME280;8055;51.930;8.840;2023-05-21T01:52:59;75948.84;;;-145.72;100.00
15914;BME280;8055;51.930;8.840;2023-05-21T01:55:27;75948.84;;;-145.72;100.00
15914;BME280;8055;51.930;8.840;2023-05-21T01:57:54;75957.13;;;-145.72;100.00
15914;BME280;8055;51.930;8.840;2023-05-21T02:00:21;75963.34;;;-145.72;100.00
15914;BME280;8055;51.930;8.840;2023-05-21T02:02:47;75959.19;;;-145.72;100.00
15914;BME280;8055;51.930;8.840;2023-05-21T02:05:12;75969.53;;;-145.72;100.00
15914;BME280;8055;51.930;8.840;2023-05-21T02:07:38;75975.75;;;-145.72;100.00
15914;BME280;8055;51.930;8.840;2023-05-21T02:10:04;75986.09;;;-145.72;100.00
15914;BME280;8055;51.930;8.840;2023-05-21T02:12:30;75994.38;;;-145.72;100.00
15914;BME280;8055;51.930;8.840;2023-05-21T02:14:55;76006.78;;;-145.72;100.00
15914;BME280;8055;51.930;8.840;2023-05-21T02:17:21;76010.94;;;-145.72;100.00
15914;BME280;8055;51.930;8.840;2023-05-21T02:19:48;76008.84;;;-145.72;100.00
15914;BME280;8055;51.930;8.840;2023-05-21T02:22:14;76021.28;;;-145.72;100.00
15914;BME280;8055;51.930;8.840;2023-05-21T02:24:40;76019.22;;;-145.72;100.00
15914;BME280;8055;51.930;8.840;2023-05-21T02:27:05;76031.63;;;-145.72;100.00
15914;BME280;8055;51.930;8.840;2023-05-21T02:29:31;76027.47;;;-145.72;100.00
15914;BME280;8055;51.930;8.840;2023-05-21T02:31:57;76031.63;;;-145.72;100.00
15914;BME280;8055;51.930;8.840;2023-05-21T02:34:22;76035.75;;;-145.72;100.00
15914;BME280;8055;51.930;8.840;2023-05-21T02:36:49;76027.47;;;-145.72;100.00
15914;BME280;8055;51.930;8.840;2023-05-21T02:39:18;76031.63;;;-145.72;100.00
15914;BME280;8055;51.930;8.840;2023-05-21T02:41:44;76027.47;;;-145.72;100.00
15914;BME280;8055;51.930;8.840;2023-05-21T02:44:10;76031.63;;;-145.72;100.00
15914;BME280;8055;51.930;8.840;2023-05-21T02:46:36;76027.47;;;-145.72;100.00
15914;BME280;8055;51.930;8.840;2023-05-21T02:49:01;76027.47;;;-145.72;100.00
15914;BME280;8055;51.930;8.840;2023-05-21T02:51:26;76031.63;;;-145.72;100.00
15914;BME280;8055;51.930;8.840;2023-05-21T02:53:52;76021.28;;;-145.72;100.00
15914;BME280;8055;51.930;8.840;2023-05-21T02:56:17;76019.22;;;-145.72;100.00
15914;BME280;8055;51.930;8.840;2023-05-21T02:58:44;76021.28;;;-145.72;100.00
15914;BME280;8055;51.930;8.840;2023-05-21T03:01:09;76021.28;;;-145.72;100.00
15914;BME280;8055;51.930;8.840;2023-05-21T03:03:35;76021.28;;;-145.72;100.00
15914;BME280;8055;51.930;8.840;2023-05-21T03:06:00;76015.06;;;-145.72;100.00
15914;BME280;8055;51.930;8.840;2023-05-21T03:08:26;76008.84;;;-145.72;100.00
15914;BME280;8055;51.930;8.840;2023-05-21T03:10:51;76010.94;;;-145.72;100.00
15914;BME280;8055;51.930;8.840;2023-05-21T03:13:16;76002.66;;;-145.72;100.00
15914;BME280;8055;51.930;8.840;2023-05-21T03:15:42;75998.50;;;-145.72;100.00
15914;BME280;8055;51.930;8.840;2023-05-21T03:18:08;76006.78;;;-145.72;100.00
15914;BME280;8055;51.930;8.840;2023-05-21T03:20:34;76013.00;;;-145.72;100.00
15914;BME280;8055;51.930;8.840;2023-05-21T03:22:59;76010.94;;;-145.72;100.00
15914;BME280;8055;51.930;8.840;2023-05-21T03:25:29;76015.06;;;-145.72;100.00
15914;BME280;8055;51.930;8.840;2023-05-21T03:27:54;76017.13;;;-145.72;100.00
15914;BME280;8055;51.930;8.840;2023-05-21T03:30:20;76015.06;;;-145.72;100.00
15914;BME280;8055;51.930;8.840;2023-05-21T03:32:46;76015.06;;;-145.72;100.00
15914;BME280;8055;51.930;8.840;2023-05-21T03:35:12;76013.00;;;-145.72;100.00
15914;BME280;8055;51.930;8.840;2023-05-21T03:37:37;76017.13;;;-145.72;100.00
15914;BME280;8055;51.930;8.840;2023-05-21T03:40:03;76013.00;;;-145.72;100.00
15914;BME280;8055;51.930;8.840;2023-05-21T03:42:28;76010.94;;;-145.72;100.00
15914;BME280;8055;51.930;8.840;2023-05-21T03:44:54;76021.28;;;-145.72;100.00
15914;BME280;8055;51.930;8.840;2023-05-21T03:47:19;76006.78;;;-145.72;100.00
15914;BME280;8055;51.930;8.840;2023-05-21T03:49:45;76013.00;;;-145.72;100.00
15914;BME280;8055;51.930;8.840;2023-05-21T03:52:10;76002.66;;;-145.72;100.00
15914;BME280;8055;51.930;8.840;2023-05-21T03:54:36;75996.44;;;-145.72;100.00
15914;BME280;8055;51.930;8.840;2023-05-21T03:57:01;75998.50;;;-145.72;100.00
15914;BME280;8055;51.930;8.840;2023-05-21T03:59:27;75996.44;;;-145.72;100.00
15914;BME280;8055;51.930;8.840;2023-05-21T04:01:52;75990.25;;;-145.72;100.00
15914;BME280;8055;51.930;8.840;2023-05-21T04:04:17;75990.25;;;-145.72;100.00
15914;BME280;8055;51.930;8.840;2023-05-21T04:06:43;75984.03;;;-145.72;100.00
15914;BME280;8055;51.930;8.840;2023-05-21T04:09:08;75986.09;;;-145.72;100.00
15914;BME280;8055;51.930;8.840;2023-05-21T04:11:33;75981.97;;;-145.72;100.00
15914;BME280;8055;51.930;8.840;2023-05-21T04:13:59;75988.16;;;-145.72;100.00
15914;BME280;8055;51.930;8.840;2023-05-21T04:16:25;75981.97;;;-145.72;100.00
15914;BME280;8055;51.930;8.840;2023-05-21T04:18:50;75979.88;;;-145.72;100.00
15914;BME280;8055;51.930;8.840;2023-05-21T04:21:16;75971.63;;;-145.72;100.00
15914;BME280;8055;51.930;8.840;2023-05-21T04:23:41;75963.34;;;-145.72;100.00
15914;BME280;8055;51.930;8.840;2023-05-21T04:26:07;75961.25;;;-145.72;100.00
15914;BME280;8055;51.930;8.840;2023-05-21T04:28:32;75953.00;;;-145.72;100.00
15914;BME280;8055;51.930;8.840;2023-05-21T04:30:59;75953.00;;;-145.72;100.00
15914;BME280;8055;51.930;8.840;2023-05-21T04:33:25;75948.84;;;-145.72;100.00
15914;BME280;8055;51.930;8.840;2023-05-21T04:35:51;75944.72;;;-145.72;100.00
15914;BME280;8055;51.930;8.840;2023-05-21T04:38:17;75934.38;;;-145.72;100.00
15914;BME280;8055;51.930;8.840;2023-05-21T04:40:49;75936.44;;;-145.72;100.00
15914;BME280;8055;51.930;8.840;2023-05-21T04:43:20;75926.09;;;-145.72;100.00
15914;BME280;8055;51.930;8.840;2023-05-21T04:45:55;75921.94;;;-145.72;100.00
15914;BME280;8055;51.930;8.840;2023-05-21T04:48:21;75913.66;;;-145.72;100.00
15914;BME280;8055;51.930;8.840;2023-05-21T04:50:51;75913.66;;;-145.72;100.00
15914;BME280;8055;51.930;8.840;2023-05-21T04:53:17;75907.47;;;-145.72;100.00
15914;BME280;8055;51.930;8.840;2023-05-21T04:55:43;75903.31;;;-145.72;100.00
15914;BME280;8055;51.930;8.840;2023-05-21T04:58:08;75892.97;;;-145.72;100.00
15914;BME280;8055;51.930;8.840;2023-05-21T05:00:37;75890.91;;;-145.72;100.00
15914;BME280;8055;51.930;8.840;2023-05-21T05:03:02;75882.63;;;-145.72;100.00
15914;BME280;8055;51.930;8.840;2023-05-21T05:05:28;75884.69;;;-145.72;100.00
15914;BME280;8055;51.930;8.840;2023-05-21T05:07:53;75872.28;;;-145.72;100.00
15914;BME280;8055;51.930;8.840;2023-05-21T05:10:19;75868.16;;;-145.72;100.00
15914;BME280;8055;51.930;8.840;2023-05-21T05:12:44;75857.81;;;-145.72;100.00
15914;BME280;8055;51.930;8.840;2023-05-21T05:15:10;75853.66;;;-145.72;100.00
15914;BME280;8055;51.930;8.840;2023-05-21T05:17:35;75837.09;;;-145.72;100.00
15914;BME280;8055;51.930;8.840;2023-05-21T05:20:01;75835.03;;;-145.72;100.00
15914;BME280;8055;51.930;8.840;2023-05-21T05:22:26;75826.75;;;-145.72;100.00
15914;BME280;8055;51.930;8.840;2023-05-21T05:24:51;75816.41;;;-145.72;100.00
15914;BME280;8055;51.930;8.840;2023-05-21T05:27:17;75816.41;;;-145.72;100.00
15914;BME280;8055;51.930;8.840;2023-05-21T05:29:46;75814.34;;;-145.72;100.00
15914;BME280;8055;51.930;8.840;2023-05-21T05:32:12;75806.06;;;-145.72;100.00
15914;BME280;8055;51.930;8.840;2023-05-21T05:34:37;75789.50;;;-145.72;100.00
15914;BME280;8055;51.930;8.840;2023-05-21T05:37:03;75787.44;;;-145.72;100.00
15914;BME280;8055;51.930;8.840;2023-05-21T05:39:28;75787.44;;;-145.72;100.00
15914;BME280;8055;51.930;8.840;2023-05-21T05:41:54;75779.16;;;-145.72;100.00
15914;BME280;8055;51.930;8.840;2023-05-21T05:44:19;75783.31;;;-145.72;100.00
15914;BME280;8055;51.930;8.840;2023-05-21T05:46:44;75768.81;;;-145.72;100.00
15914;BME280;8055;51.930;8.840;2023-05-21T05:49:10;75764.69;;;-145.72;100.00
15914;BME280;8055;51.930;8.840;2023-05-21T05:51:35;75756.41;;;-145.72;100.00
15914;BME280;8055;51.930;8.840;2023-05-21T05:54:01;75754.34;;;-145.72;100.00
15914;BME280;8055;51.930;8.840;2023-05-21T05:56:26;75735.72;;;-145.72;100.00
15914;BME280;8055;51.930;8.840;2023-05-21T05:58:52;75748.13;;;-145.72;100.00
15914;BME280;8055;51.930;8.840;2023-05-21T06:01:17;75729.50;;;-145.72;100.00
15914;BME280;8055;51.930;8.840;2023-05-21T06:03:43;75731.56;;;-145.72;100.00
15914;BME280;8055;51.930;8.840;2023-05-21T06:06:09;75721.22;;;-145.72;100.00
15914;BME280;8055;51.930;8.840;2023-05-21T06:08:35;75721.22;;;-145.72;100.00
15914;BME280;8055;51.930;8.840;2023-05-21T06:11:01;75729.50;;;-145.72;100.00
15914;BME280;8055;51.930;8.840;2023-05-21T06:13:26;75717.09;;;-145.72;100.00
15914;BME280;8055;51.930;8.840;2023-05-21T06:15:52;75719.16;;;-145.72;100.00
15914;BME280;8055;51.930;8.840;2023-05-21T06:18:18;75723.31;;;-145.72;100.00
15914;BME280;8055;51.930;8.840;2023-05-21T06:20:43;75719.16;;;-145.72;100.00
15914;BME280;8055;51.930;8.840;2023-05-21T06:23:09;75723.31;;;-145.72;100.00
15914;BME280;8055;51.930;8.840;2023-05-21T06:25:34;75725.38;;;-145.72;100.00
15914;BME280;8055;51.930;8.840;2023-05-21T06:27:59;75719.16;;;-145.72;100.00
15914;BME280;8055;51.930;8.840;2023-05-21T06:30:25;75727.44;;;-145.72;100.00
15914;BME280;8055;51.930;8.840;2023-05-21T06:32:50;75717.09;;;-145.72;100.00
15914;BME280;8055;51.930;8.840;2023-05-21T06:35:16;75717.09;;;-145.72;100.00
15914;BME280;8055;51.930;8.840;2023-05-21T06:37:41;75710.88;;;-145.72;100.00
15914;BME280;8055;51.930;8.840;2023-05-21T06:40:07;75708.81;;;-145.72;100.00
15914;BME280;8055;51.930;8.840;2023-05-21T06:42:33;75710.88;;;-145.72;100.00
15914;BME280;8055;51.930;8.840;2023-05-21T06:45:00;75717.09;;;-145.72;100.00
15914;BME280;8055;51.930;8.840;2023-05-21T06:47:26;75723.31;;;-145.72;100.00
15914;BME280;8055;51.930;8.840;2023-05-21T06:49:51;75712.94;;;-145.72;100.00
15914;BME280;8055;51.930;8.840;2023-05-21T06:52:16;75700.53;;;-145.72;100.00
15914;BME280;8055;51.930;8.840;2023-05-21T06:54:42;75688.13;;;-145.72;100.00
15914;BME280;8055;51.930;8.840;2023-05-21T06:57:07;75677.78;;;-145.72;100.00
15914;BME280;8055;51.930;8.840;2023-05-21T06:59:32;75679.84;;;-145.72;100.00
15914;BME280;8055;51.930;8.840;2023-05-21T07:01:58;75665.38;;;-145.72;100.00
15914;BME280;8055;51.930;8.840;2023-05-21T07:04:23;75663.28;;;-145.72;100.00
15914;BME280;8055;51.930;8.840;2023-05-21T07:06:49;75638.47;;;-145.72;100.00
15914;BME280;8055;51.930;8.840;2023-05-21T07:09:16;75615.69;;;-145.72;100.00
15914;BME280;8055;51.930;8.840;2023-05-21T07:11:42;75601.22;;;-145.72;100.00
15914;BME280;8055;51.930;8.840;2023-05-21T07:14:08;75603.28;;;-145.72;100.00
15914;BME280;8055;51.930;8.840;2023-05-21T07:16:33;75603.28;;;-145.72;100.00
15914;BME280;8055;51.930;8.840;2023-05-21T07:18:59;75580.53;;;-145.72;100.00
15914;BME280;8055;51.930;8.840;2023-05-21T07:21:24;75570.19;;;-145.72;100.00
15914;BME280;8055;51.930;8.840;2023-05-21T07:23:49;75549.50;;;-145.72;100.00
15914;BME280;8055;51.930;8.840;2023-05-21T07:26:15;75535.00;;;-145.72;100.00
15914;BME280;8055;51.930;8.840;2023-05-21T07:28:40;75526.72;;;-145.72;100.00
15914;BME280;8055;51.930;8.840;2023-05-21T07:31:06;75512.25;;;-145.72;100.00
15914;BME280;8055;51.930;8.840;2023-05-21T07:33:32;75522.59;;;-145.72;100.00
15914;BME280;8055;51.930;8.840;2023-05-21T07:35:58;75499.84;;;-145.72;100.00
15914;BME280;8055;51.930;8.840;2023-05-21T07:38:23;75497.75;;;-145.72;100.00
15914;BME280;8055;51.930;8.840;2023-05-21T07:40:49;75493.63;;;-145.72;100.00
15914;BME280;8055;51.930;8.840;2023-05-21T07:43:14;75491.56;;;-145.72;100.00
15914;BME280;8055;51.930;8.840;2023-05-21T07:45:39;75485.34;;;-145.72;100.00
15914;BME280;8055;51.930;8.840;2023-05-21T07:48:05;75479.13;;;-145.72;100.00
15914;BME280;8055;51.930;8.840;2023-05-21T07:50:30;75458.44;;;-145.72;100.00
15914;BME280;8055;51.930;8.840;2023-05-21T07:52:56;75448.09;;;-145.72;100.00
15914;BME280;8055;51.930;8.840;2023-05-21T07:55:21;75433.63;;;-145.72;100.00
15914;BME280;8055;51.930;8.840;2023-05-21T07:57:47;75421.22;;;-145.72;100.00
15914;BME280;8055;51.930;8.840;2023-05-21T08:00:12;75421.22;;;-145.72;100.00
15914;BME280;8055;51.930;8.840;2023-05-21T08:02:38;75423.28;;;-145.72;100.00
15914;BME280;8055;51.930;8.840;2023-05-21T08:05:04;75388.09;;;-145.72;100.00
15914;BME280;8055;51.930;8.840;2023-05-21T08:07:30;75377.75;;;-145.72;100.00
15914;BME280;8055;51.930;8.840;2023-05-21T08:09:57;75361.22;;;-145.72;100.00
15914;BME280;8055;51.930;8.840;2023-05-21T08:12:22;75369.47;;;-145.72;100.00
15914;BME280;8055;51.930;8.840;2023-05-21T08:14:48;75344.66;;;-145.72;100.00
15914;BME280;8055;51.930;8.840;2023-05-21T08:17:13;75342.59;;;-145.72;100.00
15914;BME280;8055;51.930;8.840;2023-05-21T08:19:39;75326.03;;;-145.72;100.00
15914;BME280;8055;51.930;8.840;2023-05-21T08:22:04;75309.47;;;-145.72;100.00
15914;BME280;8055;51.930;8.840;2023-05-21T08:24:33;75323.97;;;-145.72;100.00
15914;BME280;8055;51.930;8.840;2023-05-21T08:26:58;75323.97;;;-145.72;100.00
15914;BME280;8055;51.930;8.840;2023-05-21T08:29:24;75328.09;;;-145.72;100.00
15914;BME280;8055;51.930;8.840;2023-05-21T08:31:49;75307.41;;;-145.72;100.00
15914;BME280;8055;51.930;8.840;2023-05-21T08:34:15;75307.41;;;-145.72;100.00
15914;BME280;8055;51.930;8.840;2023-05-21T08:36:40;75286.72;;;-145.72;100.00
15914;BME280;8055;51.930;8.840;2023-05-21T08:39:07;75290.84;;;-145.72;100.00
15914;BME280;8055;51.930;8.840;2023-05-21T08:41:34;75274.31;;;-145.72;100.00
15914;BME280;8055;51.930;8.840;2023-05-21T08:44:01;75243.28;;;-145.72;100.00
15914;BME280;8055;51.930;8.840;2023-05-21T08:46:32;75249.47;;;-145.72;100.00
15914;BME280;8055;51.930;8.840;2023-05-21T08:49:00;75230.84;;;-145.72;100.00
15914;BME280;8055;51.930;8.840;2023-05-21T08:51:27;75224.66;;;-145.72;100.00
15914;BME280;8055;51.930;8.840;2023-05-21T08:53:53;75181.22;;;-145.72;100.00
15914;BME280;8055;51.930;8.840;2023-05-21T08:56:20;75170.88;;;-145.72;100.00
15914;BME280;8055;51.930;8.840;2023-05-21T08:58:46;75146.03;;;-145.72;100.00
15914;BME280;8055;51.930;8.840;2023-05-21T09:01:12;75112.94;;;-145.72;100.00
15914;BME280;8055;51.930;8.840;2023-05-21T09:03:39;75092.25;;;-145.72;100.00
15914;BME280;8055;51.930;8.840;2023-05-21T09:06:14;75048.78;;;-145.72;100.00
15914;BME280;8055;51.930;8.840;2023-05-21T09:08:44;75038.44;;;-145.72;100.00
15914;BME280;8055;51.930;8.840;2023-05-21T09:11:10;75059.13;;;-145.72;100.00
15914;BME280;8055;51.930;8.840;2023-05-21T09:13:37;75046.72;;;-145.72;100.00
15914;BME280;8055;51.930;8.840;2023-05-21T09:16:02;75023.97;;;-145.72;100.00
15914;BME280;8055;51.930;8.840;2023-05-21T09:18:28;75034.31;;;-145.72;100.00
15914;BME280;8055;51.930;8.840;2023-05-21T09:20:54;75015.69;;;-145.72;100.00
15914;BME280;8055;51.930;8.840;2023-05-21T09:23:20;75023.97;;;-145.72;100.00
15914;BME280;8055;51.930;8.840;2023-05-21T09:25:47;75050.88;;;-145.72;100.00
15914;BME280;8055;51.930;8.840;2023-05-21T09:28:14;75034.31;;;-145.72;100.00
15914;BME280;8055;51.930;8.840;2023-05-21T09:30:46;75038.44;;;-145.72;100.00
15914;BME280;8055;51.930;8.840;2023-05-21T09:33:23;75001.22;;;-145.72;100.00
15914;BME280;8055;51.930;8.840;2023-05-21T09:35:49;74978.47;;;-145.72;100.00
15914;BME280;8055;51.930;8.840;2023-05-21T09:38:15;74968.13;;;-145.72;100.00
15914;BME280;8055;51.930;8.840;2023-05-21T09:40:44;74963.97;;;-145.72;100.00
15914;BME280;8055;51.930;8.840;2023-05-21T09:43:13;74980.53;;;-145.72;100.00
15914;BME280;8055;51.930;8.840;2023-05-21T09:45:52;74955.69;;;-145.72;100.00
15914;BME280;8055;51.930;8.840;2023-05-21T09:48:37;74910.19;;;-145.72;100.00
15914;BME280;8055;51.930;8.840;2023-05-21T09:51:18;74916.38;;;-145.72;100.00
15914;BME280;8055;51.930;8.840;2023-05-21T09:53:49;74887.44;;;-145.72;100.00
15914;BME280;8055;51.930;8.840;2023-05-21T09:56:18;74850.19;;;-145.72;100.00
15914;BME280;8055;51.930;8.840;2023-05-21T09:58:46;74823.28;;;-145.72;100.00
15914;BME280;8055;51.930;8.840;2023-05-21T10:01:12;74806.75;;;-145.72;100.00
15914;BME280;8055;51.930;8.840;2023-05-21T10:03:38;74786.06;;;-145.72;100.00
15914;BME280;8055;51.930;8.840;2023-05-21T10:06:07;74777.78;;;-145.72;100.00
15914;BME280;8055;51.930;8.840;2023-05-21T10:08:35;74777.78;;;-145.72;100.00
15914;BME280;8055;51.930;8.840;2023-05-21T10:11:04;74777.78;;;-145.72;100.00
15914;BME280;8055;51.930;8.840;2023-05-21T10:13:30;74736.41;;;-145.72;100.00
15914;BME280;8055;51.930;8.840;2023-05-21T10:16:00;74701.25;;;-145.72;100.00
15914;BME280;8055;51.930;8.840;2023-05-21T10:18:28;74674.34;;;-145.72;100.00
15914;BME280;8055;51.930;8.840;2023-05-21T10:20:55;74639.19;;;-145.72;100.00
15914;BME280;8055;51.930;8.840;2023-05-21T10:23:22;74610.22;;;-145.72;100.00
15914;BME280;8055;51.930;8.840;2023-05-21T10:25:48;74612.28;;;-145.72;100.00
15914;BME280;8055;51.930;8.840;2023-05-21T10:28:15;74575.06;;;-145.72;100.00
15914;BME280;8055;51.930;8.840;2023-05-21T10:30:42;74566.78;;;-145.72;100.00
15914;BME280;8055;51.930;8.840;2023-05-21T10:33:08;74589.53;;;-145.72;100.00
15914;BME280;8055;51.930;8.840;2023-05-21T10:35:37;74599.88;;;-145.72;100.00
15914;BME280;8055;51.930;8.840;2023-05-21T10:38:05;74612.28;;;-145.72;100.00
15914;BME280;8055;51.930;8.840;2023-05-21T10:40:30;74587.47;;;-145.72;100.00
15914;BME280;8055;51.930;8.840;2023-05-21T10:43:02;74585.41;;;-145.72;99.14
15914;BME280;8055;51.930;8.840;2023-05-21T10:48:21;74560.56;;;-145.72;100.00
15914;BME280;8055;51.930;8.840;2023-05-21T10:53:47;74525.41;;;-145.72;99.17
15914;BME280;8055;51.930;8.840;2023-05-21T10:59:38;74554.38;;;-145.72;98.08
15914;BME280;8055;51.930;8.840;2023-05-21T11:02:05;74573.00;;;-145.72;97.23
15914;BME280;8055;51.930;8.840;2023-05-21T11:04:31;74558.50;;;-145.72;100.00
15914;BME280;8055;51.930;8.840;2023-05-21T11:06:57;74554.38;;;-145.72;100.00
15914;BME280;8055;51.930;8.840;2023-05-21T11:09:23;74537.81;;;-145.72;98.47
15914;BME280;8055;51.930;8.840;2023-05-21T11:11:50;74541.97;;;-145.72;98.13
15914;BME280;8055;51.930;8.840;2023-05-21T11:17:08;74533.69;;;-145.72;98.18
15914;BME280;8055;51.930;8.840;2023-05-21T11:19:42;74533.69;;;-145.72;99.13
15914;BME280;8055;51.930;8.840;2023-05-21T11:22:09;74550.22;;;-145.72;96.74
15914;BME280;8055;51.930;8.840;2023-05-21T11:24:44;74541.97;;;-145.72;94.65
15914;BME280;8055;51.930;8.840;2023-05-21T11:27:09;74535.75;;;-145.72;93.47
15914;BME280;8055;51.930;8.840;2023-05-21T11:29:39;74529.53;;;-145.72;94.76
15914;BME280;8055;51.930;8.840;2023-05-21T11:32:06;74525.41;;;-145.72;95.47
15914;BME280;8055;51.930;8.840;2023-05-21T11:40:15;74517.13;;;-145.72;96.59
15914;BME280;8055;51.930;8.840;2023-05-21T11:42:40;74523.34;;;-145.72;91.57
15914;BME280;8055;51.930;8.840;2023-05-21T11:45:08;74523.34;;;-145.72;95.85
15914;BME280;8055;51.930;8.840;2023-05-21T11:47:34;74513.00;;;-145.72;96.14
15914;BME280;8055;51.930;8.840;2023-05-21T11:50:01;74508.88;;;-145.72;94.59
15914;BME280;8055;51.930;8.840;2023-05-21T11:52:29;74504.72;;;-145.72;96.57
15914;BME280;8055;51.930;8.840;2023-05-21T11:54:56;74521.28;;;-145.72;95.46
15914;BME280;8055;51.930;8.840;2023-05-21T11:57:27;74513.00;;;-145.72;96.52
15914;BME280;8055;51.930;8.840;2023-05-21T11:59:56;74519.19;;;-145.72;94.75
15914;BME280;8055;51.930;8.840;2023-05-21T12:02:31;74521.28;;;-145.72;95.03
15914;BME280;8055;51.930;8.840;2023-05-21T12:04:57;74519.19;;;-145.72;95.10
15914;BME280;8055;51.930;8.840;2023-05-21T12:07:28;74517.13;;;-145.72;97.91
15914;BME280;8055;51.930;8.840;2023-05-21T12:09:54;74494.38;;;-145.72;95.85
15914;BME280;8055;51.930;8.840;2023-05-21T12:12:21;74506.78;;;-145.72;90.99
15914;BME280;8055;51.930;8.840;2023-05-21T12:14:48;74521.28;;;-145.72;89.15
15914;BME280;8055;51.930;8.840;2023-05-21T12:17:19;74494.38;;;-145.72;95.96
15914;BME280;8055;51.930;8.840;2023-05-21T12:19:45;74496.44;;;-145.72;94.58
15914;BME280;8055;51.930;8.840;2023-05-21T12:22:11;74457.16;;;-145.72;96.21
15914;BME280;8055;51.930;8.840;2023-05-21T12:24:37;74421.97;;;-145.72;91.83
15914;BME280;8055;51.930;8.840;2023-05-21T12:27:04;74380.63;;;-145.72;91.60
15914;BME280;8055;51.930;8.840;2023-05-21T12:29:35;74368.19;;;-145.72;93.34
15914;BME280;8055;51.930;8.840;2023-05-21T12:32:06;74343.38;;;-145.72;95.37
15914;BME280;8055;51.930;8.840;2023-05-21T12:34:52;74345.44;;;-145.72;91.17
15914;BME280;8055;51.930;8.840;2023-05-21T12:37:26;74353.72;;;-145.72;86.20
15914;BME280;8055;51.930;8.840;2023-05-21T12:39:53;74337.16;;;-145.72;85.24
15914;BME280;8055;51.930;8.840;2023-05-21T12:42:29;74337.16;;;-145.72;88.55
15914;BME280;8055;51.930;8.840;2023-05-21T12:44:55;74320.63;;;-145.72;90.09
15914;BME280;8055;51.930;8.840;2023-05-21T12:47:25;74312.34;;;-145.72;90.24
15914;BME280;8055;51.930;8.840;2023-05-21T12:49:58;74341.31;;;-145.72;86.26
15914;BME280;8055;51.930;8.840;2023-05-21T12:52:24;74353.72;;;-145.72;85.71
15914;BME280;8055;51.930;8.840;2023-05-21T12:54:52;74355.78;;;-145.72;89.38
15914;BME280;8055;51.930;8.840;2023-05-21T12:57:40;74351.66;;;-145.72;91.50